CheckWX is a tool to help pilots better visualize weather data.  It is not intended as a substitute for an official pre-flight weather briefing.

14:17:12 UTC

KCPT METAR
Cleburne Regional Airport
Cleburne, Texas, USA
Current

42 mins ago

KCPT 221335Z AUTO 17014G22KT 10SM SCT012 18/17 A3003 RMK AO2
Observed
Apr-22 @ 13:35 UTC
Wind
  • 170° at 14 KTS
  • Gusting to 22 KTS
Visibility
10 SM
Flight Rules
VFR
Cloud Levels
  • Scattered at 1,200' AGL
Temperature
18°C / 64°F
Dewpoint
17°C / 63°F
Humidity
94%
Altimeter
30.03" Hg
Pressure
1016.92 hPa
Previous

1 hour ago

KCPT 221255Z AUTO 17016KT 10SM BKN015 BKN019 18/17 A3001 RMK AO2
Observed
Apr-22 @ 12:55 UTC
Wind
  • 170° at 16 KTS
Visibility
10 SM
Flight Rules
MVFR
Cloud Levels
  • Broken at 1,500' AGL
  • Broken at 1,900' AGL
Temperature
18°C / 64°F
Dewpoint
17°C / 63°F
Humidity
94%
Altimeter
30.01" Hg
Pressure
1016.22 hPa
Previous

2 hours ago

KCPT 221235Z AUTO 16011KT 10SM SCT014 BKN019 17/17 A3002 RMK AO2
Observed
Apr-22 @ 12:35 UTC
Wind
  • 160° at 11 KTS
Visibility
10 SM
Flight Rules
MVFR
Cloud Levels
  • Scattered at 1,400' AGL
  • Broken at 1,900' AGL
Temperature
17°C / 63°F
Dewpoint
17°C / 63°F
Humidity
100%
Altimeter
30.02" Hg
Pressure
1016.62 hPa